Time;durP1;ratioP1;P1;durP2;ratioP2;P2;SDS_P1;SDS_P2;PMS_P1;PMS_P2;Temp;Humidity;BMP_temperature;BMP_pressure;BME280_temperature;BME280_humidity;BME280_pressure;Samples;Min_cycle;Max_cycle;Signal;HPM_P1;HPM_P2
2022/06/13 00:01:17;;;;;;;;;18.67;18.33;;;;;23.35;58.48;100849.38;110301;1264;19582;-47
2022/06/13 00:03:45;;;;;;;;;26.50;24.00;;;;;23.40;58.24;100844.71;110302;1264;18777;-47
2022/06/13 00:06:12;;;;;;;;;20.00;20.00;;;;;23.39;58.33;100845.80;110268;1263;18991;-48
2022/06/13 00:08:39;;;;;;;;;19.33;18.67;;;;;23.36;58.30;100838.18;110272;1264;19486;-47
2022/06/13 00:11:06;;;;;;;;;20.67;20.67;;;;;23.28;58.40;100834.80;110266;1264;22384;-47
2022/06/13 00:13:34;;;;;;;;;20.00;18.50;;;;;23.28;58.64;100830.40;110283;1264;18864;-45
2022/06/13 00:16:01;;;;;;;;;19.00;18.00;;;;;23.33;58.33;100827.49;110328;1264;20048;-47
2022/06/13 00:18:28;;;;;;;;;25.67;23.00;;;;;23.28;58.39;100824.45;110228;1264;18768;-47
2022/06/13 00:20:55;;;;;;;;;19.67;19.67;;;;;23.29;58.23;100825.23;110171;1264;18780;-47
2022/06/13 00:23:23;;;;;;;;;22.00;20.00;;;;;23.33;58.38;100824.35;110256;1265;19526;-48
2022/06/13 00:25:50;;;;;;;;;18.00;18.00;;;;;23.38;58.16;100819.49;110295;1264;18866;-48
2022/06/13 00:28:17;;;;;;;;;19.67;19.33;;;;;23.43;57.89;100815.17;110317;1265;18947;-48
2022/06/13 00:30:44;;;;;;;;;20.00;20.00;;;;;23.46;57.97;100808.59;110265;1264;19475;-48
2022/06/13 00:33:12;;;;;;;;;18.00;18.00;;;;;23.38;58.02;100807.08;110305;1264;20561;-48
2022/06/13 00:35:39;;;;;;;;;22.00;19.67;;;;;23.33;58.04;100799.40;110296;1264;18890;-47
2022/06/13 00:38:07;;;;;;;;;20.67;19.67;;;;;23.29;58.21;100801.58;110306;1264;19471;-47
2022/06/13 00:40:34;;;;;;;;;19.00;19.00;;;;;23.30;58.25;100802.35;110245;1265;18828;-47
2022/06/13 00:43:01;;;;;;;;;24.00;21.50;;;;;23.26;58.36;100804.61;110313;1264;22647;-46
2022/06/13 00:45:28;;;;;;;;;23.50;23.00;;;;;23.25;58.34;100800.02;110213;1264;19651;-48
2022/06/13 00:47:56;;;;;;;;;24.00;23.33;;;;;23.22;58.34;100795.98;110294;1264;18753;-47
2022/06/13 00:50:23;;;;;;;;;19.00;18.67;;;;;23.25;58.40;100789.96;110279;1264;18843;-47
2022/06/13 00:52:50;;;;;;;;;19.67;19.67;;;;;23.34;58.06;100787.25;110256;1264;19677;-47
2022/06/13 00:55:18;;;;;;;;;20.67;20.33;;;;;23.35;58.02;100783.93;110311;1264;23488;-49
2022/06/13 00:57:45;;;;;;;;;20.00;20.00;;;;;23.37;58.06;100777.73;110272;1264;22836;-49
2022/06/13 01:00:12;;;;;;;;;18.00;18.00;;;;;23.34;57.99;100779.05;110286;1264;19524;-47
2022/06/13 01:02:39;;;;;;;;;23.67;20.33;;;;;23.25;58.17;100775.88;110289;1265;23075;-48
2022/06/13 01:05:07;;;;;;;;;23.50;23.00;;;;;23.29;58.29;100773.60;110276;1264;18790;-47
2022/06/13 01:07:34;;;;;;;;;26.33;24.00;;;;;23.24;58.20;100768.40;110291;1265;22936;-48
2022/06/13 01:12:46;;;;;;;;;24.00;20.33;;;;;23.14;58.42;100761.07;110211;1264;18747;-49
2022/06/13 01:15:14;;;;;;;;;24.50;24.00;;;;;23.12;58.50;100765.36;110258;1265;22258;-47
2022/06/13 01:17:41;;;;;;;;;20.33;19.00;;;;;23.11;58.52;100761.15;110248;1265;18747;-47
2022/06/13 01:20:08;;;;;;;;;23.33;21.67;;;;;23.14;58.48;100760.81;110273;1264;19128;-48
2022/06/13 01:22:35;;;;;;;;;19.00;19.00;;;;;23.16;58.42;100759.70;110279;1264;19489;-49
2022/06/13 01:25:03;;;;;;;;;20.50;19.50;;;;;23.19;58.26;100759.23;110224;1264;26097;-47
2022/06/13 01:27:30;;;;;;;;;22.33;20.33;;;;;23.23;58.28;100757.63;110290;1264;18783;-47
2022/06/13 01:29:57;;;;;;;;;20.00;20.00;;;;;23.20;58.18;100754.62;110262;1264;19976;-47
2022/06/13 01:32:24;;;;;;;;;20.00;20.00;;;;;23.17;58.26;100752.81;110287;1265;20264;-47
2022/06/13 01:34:52;;;;;;;;;22.67;20.67;;;;;23.16;58.34;100750.27;110303;1264;18857;-48
2022/06/13 01:37:19;;;;;;;;;24.00;21.67;;;;;23.20;58.24;100751.96;110350;1264;19795;-48
2022/06/13 01:39:46;;;;;;;;;22.67;20.33;;;;;23.21;58.09;100748.36;110294;1264;18878;-47
2022/06/13 01:42:13;;;;;;;;;21.33;20.00;;;;;23.18;58.07;100744.40;110289;1264;18824;-47
2022/06/13 01:44:42;;;;;;;;;23.00;21.00;;;;;23.17;58.15;100748.67;110281;1264;19473;-47
2022/06/13 01:47:09;;;;;;;;;23.00;20.67;;;;;23.15;58.25;100746.77;110254;1265;18919;-47
2022/06/13 01:49:36;;;;;;;;;22.67;22.00;;;;;23.11;58.28;100741.38;110201;1264;18925;-46
2022/06/13 01:52:03;;;;;;;;;20.50;19.50;;;;;23.13;58.23;100739.48;110226;1264;20935;-47
2022/06/13 01:54:30;;;;;;;;;24.00;23.00;;;;;23.13;58.18;100740.35;110111;1264;18773;-48
2022/06/13 01:56:58;;;;;;;;;24.00;24.00;;;;;23.13;58.12;100737.15;110260;1264;26770;-47
2022/06/13 01:59:25;;;;;;;;;21.67;21.00;;;;;23.12;58.02;100735.47;110280;1264;19511;-47
2022/06/13 02:01:52;;;;;;;;;21.00;20.67;;;;;23.05;58.26;100735.30;110288;1264;18999;-49
2022/06/13 02:04:20;;;;;;;;;21.00;21.00;;;;;23.01;58.23;100732.98;110331;1264;18786;-48
2022/06/13 02:06:47;;;;;;;;;22.00;21.00;;;;;23.02;58.28;100729.13;110282;1265;19763;-47
2022/06/13 02:09:14;;;;;;;;;22.50;22.00;;;;;23.02;58.23;100732.50;110290;1264;18829;-48
2022/06/13 02:11:41;;;;;;;;;24.00;23.00;;;;;23.05;58.14;100730.75;110231;1264;18866;-48
2022/06/13 02:14:09;;;;;;;;;23.00;20.00;;;;;23.15;57.89;100733.26;110280;1264;19557;-47
2022/06/13 02:16:36;;;;;;;;;19.33;19.33;;;;;23.11;57.93;100732.68;110273;1265;18835;-48
2022/06/13 02:19:03;;;;;;;;;21.00;19.00;;;;;23.12;57.95;100731.29;110328;1264;18939;-47
2022/06/13 02:21:31;;;;;;;;;22.67;20.33;;;;;23.09;57.90;100728.20;110163;1264;20193;-47
2022/06/13 02:23:58;;;;;;;;;25.67;22.67;;;;;23.11;57.99;100728.46;110290;1264;18808;-47
2022/06/13 02:26:26;;;;;;;;;19.00;19.00;;;;;23.09;57.91;100728.96;110316;1264;18808;-48
2022/06/13 02:28:53;;;;;;;;;23.00;20.67;;;;;23.06;58.04;100727.98;110300;1264;19869;-48
2022/06/13 02:31:20;;;;;;;;;22.33;19.00;;;;;23.03;57.92;100724.73;110339;1264;18792;-48
2022/06/13 02:33:48;;;;;;;;;24.00;23.00;;;;;23.03;57.89;100724.89;110274;1264;18952;-48
2022/06/13 02:36:15;;;;;;;;;22.00;21.33;;;;;23.04;57.89;100723.69;110304;1264;19472;-48
2022/06/13 02:38:42;;;;;;;;;23.00;19.67;;;;;23.00;57.76;100717.15;110291;1264;22861;-47
2022/06/13 02:41:09;;;;;;;;;19.33;19.00;;;;;22.99;57.78;100717.61;110250;1265;18832;-47
2022/06/13 02:43:37;;;;;;;;;21.67;20.33;;;;;22.96;57.98;100717.95;110272;1265;19467;-47
2022/06/13 02:46:04;;;;;;;;;19.00;19.00;;;;;22.94;57.78;100723.00;110339;1264;18895;-48
2022/06/13 02:48:31;;;;;;;;;20.00;19.00;;;;;22.90;58.02;100721.33;110261;1263;18796;-47
2022/06/13 02:50:59;;;;;;;;;20.00;19.50;;;;;22.85;58.05;100729.35;110300;1263;22817;-48
2022/06/13 02:53:26;;;;;;;;;20.00;20.00;;;;;22.83;58.08;100731.41;110291;1264;18840;-47
2022/06/13 02:55:53;;;;;;;;;24.00;24.00;;;;;22.87;57.96;100730.17;110239;1264;24954;-46
2022/06/13 02:58:20;;;;;;;;;23.50;21.00;;;;;22.88;57.84;100724.66;110321;1264;19525;-46
2022/06/13 03:00:48;;;;;;;;;23.00;23.00;;;;;22.86;57.78;100721.51;110266;1264;18889;-47
2022/06/13 03:03:15;;;;;;;;;22.67;22.67;;;;;22.83;57.80;100716.16;110289;1264;18877;-50
2022/06/13 03:05:42;;;;;;;;;27.00;24.00;;;;;22.82;57.88;100714.63;110282;1264;19758;-48
2022/06/13 03:08:09;;;;;;;;;25.00;24.00;;;;;22.82;57.94;100713.16;110301;1264;18815;-47
2022/06/13 03:10:37;;;;;;;;;22.00;20.00;;;;;22.80;58.01;100710.45;110264;1264;18861;-47
2022/06/13 03:13:04;;;;;;;;;22.67;21.33;;;;;22.76;58.15;100706.48;110305;1264;19697;-45
2022/06/13 03:15:31;;;;;;;;;23.00;19.00;;;;;22.74;58.14;100707.17;110265;1263;18859;-48
2022/06/13 03:17:58;;;;;;;;;18.50;17.00;;;;;22.76;58.09;100706.38;110300;1264;18822;-48
2022/06/13 03:20:26;;;;;;;;;23.50;22.50;;;;;22.75;58.29;100716.05;110279;1264;19671;-48
2022/06/13 03:22:53;;;;;;;;;22.00;21.67;;;;;22.77;58.14;100713.05;110292;1264;19100;-47
2022/06/13 03:25:20;;;;;;;;;20.50;20.50;;;;;22.76;58.34;100712.02;110296;1265;18951;-47
2022/06/13 03:27:48;;;;;;;;;24.67;23.00;;;;;22.79;58.16;100710.19;110240;1264;21963;-46
2022/06/13 03:30:15;;;;;;;;;22.00;19.67;;;;;22.77;58.17;100712.44;110294;1264;21396;-47
2022/06/13 03:32:42;;;;;;;;;22.67;20.33;;;;;22.78;58.31;100715.50;110276;1264;19092;-47
2022/06/13 03:35:10;;;;;;;;;26.50;24.00;;;;;22.74;58.32;100717.39;110239;1264;22004;-47
2022/06/13 03:37:37;;;;;;;;;24.00;22.50;;;;;22.65;58.49;100724.48;110296;1263;18758;-47
2022/06/13 03:40:04;;;;;;;;;24.67;23.67;;;;;22.66;58.63;100726.73;110312;1264;22849;-49
2022/06/13 03:42:31;;;;;;;;;26.67;24.00;;;;;22.72;58.55;100731.33;110288;1265;19464;-47
2022/06/13 03:44:59;;;;;;;;;25.00;23.50;;;;;22.74;58.39;100727.60;110288;1264;21362;-47
2022/06/13 03:47:26;;;;;;;;;23.33;23.33;;;;;22.77;58.45;100728.02;110306;1265;18974;-47
2022/06/13 03:49:56;;;;;;;;;22.33;22.33;;;;;22.76;58.40;100720.58;110271;1264;19523;-47
2022/06/13 03:52:23;;;;;;;;;25.00;23.00;;;;;22.74;58.62;100711.84;110293;1265;18689;-46
2022/06/13 03:54:51;;;;;;;;;25.67;24.00;;;;;22.75;58.58;100704.39;110282;1264;18916;-49
2022/06/13 03:57:18;;;;;;;;;23.00;22.67;;;;;22.77;58.44;100694.68;110266;1264;19544;-48
2022/06/13 03:59:45;;;;;;;;;22.00;22.00;;;;;22.77;58.62;100686.24;110259;1264;18980;-47
2022/06/13 04:02:12;;;;;;;;;19.00;19.00;;;;;22.79;58.47;100685.42;110298;1265;18829;-46
2022/06/13 04:04:40;;;;;;;;;23.50;23.50;;;;;22.74;58.65;100685.42;110281;1264;20307;-48
2022/06/13 04:07:07;;;;;;;;;23.67;23.00;;;;;22.75;58.85;100683.64;110334;1264;22443;-47
2022/06/13 04:09:34;;;;;;;;;25.00;23.67;;;;;22.75;58.89;100687.42;110283;1264;18810;-48
2022/06/13 04:12:01;;;;;;;;;24.33;23.00;;;;;22.79;58.88;100684.61;110257;1264;20441;-48
2022/06/13 04:14:29;;;;;;;;;22.00;21.67;;;;;22.79;58.97;100683.45;110223;1264;18819;-48
2022/06/13 04:16:56;;;;;;;;;24.00;24.00;;;;;22.91;58.51;100683.11;110304;1264;18890;-47
2022/06/13 04:19:24;;;;;;;;;24.00;22.33;;;;;22.93;58.66;100684.48;110316;1264;19505;-51
2022/06/13 04:21:51;;;;;;;;;23.00;21.33;;;;;22.89;58.73;100682.07;110291;1264;18798;-48
2022/06/13 04:24:18;;;;;;;;;24.67;24.33;;;;;22.91;58.87;100684.46;110259;1264;18872;-46
2022/06/13 04:26:45;;;;;;;;;24.00;22.67;;;;;22.98;58.63;100682.36;110261;1264;20743;-48
2022/06/13 04:29:13;;;;;;;;;23.67;23.00;;;;;22.97;58.76;100681.63;110254;1265;18754;-48
2022/06/13 04:31:40;;;;;;;;;19.00;19.00;;;;;22.98;58.60;100682.52;110282;1264;18819;-47
2022/06/13 04:34:07;;;;;;;;;23.50;21.00;;;;;23.05;58.71;100672.61;110293;1263;22177;-48
2022/06/13 04:36:34;;;;;;;;;24.00;20.50;;;;;23.08;58.61;100674.17;110274;1264;18710;-46
2022/06/13 04:39:02;;;;;;;;;22.33;20.33;;;;;23.04;58.69;100667.06;110244;1264;22296;-46
2022/06/13 04:41:30;;;;;;;;;23.67;22.67;;;;;23.06;58.53;100664.56;110248;1264;19946;-48
2022/06/13 04:43:57;;;;;;;;;22.33;19.67;;;;;23.00;58.84;100657.55;110226;1264;19409;-47
2022/06/13 04:46:25;;;;;;;;;21.00;19.67;;;;;23.05;58.79;100660.55;110291;1264;18843;-48
2022/06/13 04:48:52;;;;;;;;;31.00;29.00;;;;;23.10;58.58;100657.09;110133;1264;19657;-48
2022/06/13 04:51:20;;;;;;;;;29.50;28.50;;;;;22.76;59.37;100663.95;110240;1264;18716;-47
2022/06/13 04:53:47;;;;;;;;;31.00;29.00;;;;;22.41;60.26;100673.58;110272;1262;18875;-48
2022/06/13 04:56:14;;;;;;;;;29.00;28.00;;;;;22.29;61.01;100678.33;110331;1262;19496;-48
2022/06/13 04:58:42;;;;;;;;;35.00;32.00;;;;;22.32;61.29;100673.13;110271;1263;22539;-48
2022/06/13 05:01:09;;;;;;;;;29.67;29.00;;;;;22.44;61.27;100672.25;110312;1264;19163;-48
2022/06/13 05:03:36;;;;;;;;;33.00;32.00;;;;;22.50;61.02;100672.45;110158;1264;22598;-48
2022/06/13 05:06:03;;;;;;;;;28.00;28.00;;;;;22.41;61.64;100671.65;110233;1264;18742;-47
2022/06/13 05:08:31;;;;;;;;;33.00;30.00;;;;;22.39;61.79;100671.49;110243;1264;18989;-46
2022/06/13 05:10:58;;;;;;;;;27.33;26.00;;;;;22.51;61.70;100664.77;110255;1264;20385;-46
2022/06/13 05:13:25;;;;;;;;;30.00;27.67;;;;;22.81;60.93;100663.17;110210;1265;18995;-48
2022/06/13 05:15:54;;;;;;;;;26.50;26.00;;;;;23.10;60.17;100651.35;110225;1264;18998;-47
2022/06/13 05:18:22;;;;;;;;;22.50;22.00;;;;;23.34;59.52;100653.58;110252;1264;20227;-50
2022/06/13 05:20:49;;;;;;;;;25.33;22.67;;;;;23.48;58.91;100651.18;110222;1264;18811;-48
2022/06/13 05:23:16;;;;;;;;;28.00;26.33;;;;;23.57;59.07;100650.08;110225;1264;18849;-49
2022/06/13 05:25:44;;;;;;;;;24.67;24.67;;;;;23.61;58.76;100648.73;110235;1264;22232;-49
2022/06/13 05:28:11;;;;;;;;;34.00;33.50;;;;;23.34;59.00;100646.37;110316;1264;20299;-48
2022/06/13 05:30:39;;;;;;;;;39.33;36.00;;;;;22.34;61.23;100651.92;110221;1264;18830;-48
2022/06/13 05:33:06;;;;;;;;;40.67;38.67;;;;;22.11;62.62;100658.02;110272;1265;19460;-49
2022/06/13 05:35:35;;;;;;;;;40.00;36.00;;;;;21.71;63.72;100654.83;110242;1264;18685;-49
2022/06/13 05:38:02;;;;;;;;;39.00;38.50;;;;;21.86;63.81;100650.87;110266;1264;19034;-49
2022/06/13 05:40:30;;;;;;;;;37.00;36.00;;;;;21.97;63.59;100661.29;110213;1264;19432;-49
2022/06/13 05:42:57;;;;;;;;;37.33;33.33;;;;;21.61;64.54;100658.55;109945;1264;335423;-49
2022/06/13 05:45:24;;;;;;;;;37.00;34.00;;;;;21.89;63.99;100648.61;110221;1262;18875;-48
2022/06/13 05:47:52;;;;;;;;;37.00;33.67;;;;;22.06;63.75;100648.45;110293;1263;19622;-49
2022/06/13 05:50:20;;;;;;;;;29.50;27.50;;;;;22.63;62.60;100644.58;110229;1264;19190;-49
2022/06/13 05:52:47;;;;;;;;;30.67;26.33;;;;;23.13;61.22;100654.30;110277;1264;18847;-48
2022/06/13 05:55:14;;;;;;;;;27.00;25.67;;;;;23.42;60.52;100660.30;110297;1264;19616;-48
2022/06/13 05:57:41;;;;;;;;;28.00;27.33;;;;;23.61;60.29;100654.41;110175;1264;18768;-48
2022/06/13 06:00:10;;;;;;;;;29.00;24.67;;;;;23.73;60.15;100651.33;110234;1261;18846;-48
2022/06/13 06:02:37;;;;;;;;;24.00;24.00;;;;;23.82;59.77;100659.39;110183;1262;23063;-46
2022/06/13 06:05:04;;;;;;;;;28.33;27.00;;;;;23.83;59.59;100665.69;110151;1265;18705;-51
2022/06/13 06:07:32;;;;;;;;;34.33;32.33;;;;;23.78;59.70;100666.02;110251;1265;19003;-50
2022/06/13 06:09:59;;;;;;;;;29.00;28.00;;;;;23.56;60.02;100664.25;110261;1264;19479;-48
2022/06/13 06:12:26;;;;;;;;;32.50;30.00;;;;;23.32;60.52;100658.70;110263;1264;18774;-51
2022/06/13 06:14:53;;;;;;;;;29.00;28.33;;;;;23.29;60.55;100649.10;110255;1264;23633;-49
2022/06/13 06:17:21;;;;;;;;;29.33;28.00;;;;;23.45;60.45;100653.63;110293;1264;19519;-50
2022/06/13 06:19:48;;;;;;;;;31.00;29.00;;;;;23.55;60.35;100656.11;110275;1264;20684;-48
2022/06/13 06:22:15;;;;;;;;;32.67;30.00;;;;;23.55;59.97;100667.95;110264;1264;18824;-47
2022/06/13 06:24:42;;;;;;;;;33.33;32.33;;;;;23.51;60.05;100680.70;110197;1264;19739;-51
2022/06/13 06:27:10;;;;;;;;;36.50;32.50;;;;;23.53;60.19;100686.90;110132;1264;18719;-48
2022/06/13 06:29:37;;;;;;;;;28.00;26.00;;;;;23.50;60.41;100692.91;110120;1262;22357;-48
2022/06/13 06:32:05;;;;;;;;;30.33;28.67;;;;;23.55;60.17;100690.46;110207;1264;19603;-54
2022/06/13 06:34:32;;;;;;;;;30.00;29.00;;;;;23.68;59.71;100692.29;110271;1264;18755;-51
2022/06/13 06:37:00;;;;;;;;;25.00;24.50;;;;;23.79;59.67;100695.55;110218;1264;18807;-50
2022/06/13 06:39:27;;;;;;;;;30.00;30.00;;;;;23.89;59.47;100702.48;110278;1264;22302;-50
2022/06/13 06:41:56;;;;;;;;;30.50;26.00;;;;;23.98;59.36;100716.88;110236;1264;23555;-50
2022/06/13 06:44:23;;;;;;;;;26.00;24.00;;;;;24.02;59.31;100730.18;110253;1264;19157;-50
2022/06/13 06:46:51;;;;;;;;;29.00;26.67;;;;;24.07;59.18;100736.48;110261;1264;19520;-50
2022/06/13 06:49:18;;;;;;;;;26.00;26.00;;;;;24.08;59.21;100746.23;110274;1262;20731;-48
2022/06/13 06:51:45;;;;;;;;;24.33;22.33;;;;;24.08;59.01;100735.83;110278;1262;18924;-50
2022/06/13 06:59:55;;;;;;;;;24.00;23.00;;;;;24.13;59.24;100724.66;110262;1264;18862;-49
2022/06/13 07:02:23;;;;;;;;;24.67;24.00;;;;;24.08;59.42;100714.39;110219;1264;22704;-54
2022/06/13 07:04:51;;;;;;;;;24.50;22.00;;;;;24.06;59.14;100710.45;110285;1264;18787;-47
2022/06/13 07:07:18;;;;;;;;;21.67;20.33;;;;;24.05;58.66;100705.27;110294;1264;20340;-48
2022/06/13 07:09:46;;;;;;;;;21.00;21.00;;;;;24.04;58.41;100698.70;110142;1264;19536;-51
2022/06/13 07:12:13;;;;;;;;;22.00;20.00;;;;;24.05;58.10;100696.80;110258;1264;18861;-51
2022/06/13 07:14:40;;;;;;;;;18.33;17.00;;;;;24.06;57.70;100693.13;110259;1264;18819;-48
2022/06/13 07:17:07;;;;;;;;;17.00;16.00;;;;;24.06;57.21;100687.48;110271;1264;20104;-48
2022/06/13 07:19:35;;;;;;;;;19.00;19.00;;;;;24.05;56.89;100686.31;110223;1264;20177;-49
2022/06/13 07:22:02;;;;;;;;;17.00;16.67;;;;;24.05;56.92;100690.86;110240;1264;22973;-48
2022/06/13 07:24:31;;;;;;;;;17.00;16.00;;;;;24.08;56.53;100690.91;110265;1263;19549;-53
2022/06/13 07:26:58;;;;;;;;;15.50;15.50;;;;;24.07;56.32;100694.83;110254;1264;22572;-49
2022/06/13 07:29:25;;;;;;;;;14.33;14.33;;;;;24.07;55.95;100695.23;110248;1264;18960;-49
2022/06/13 07:31:54;;;;;;;;;15.00;14.00;;;;;24.07;55.84;100698.29;110223;1264;19622;-50
2022/06/13 07:34:21;;;;;;;;;15.00;14.33;;;;;24.06;55.65;100699.49;110273;1262;18770;-49
2022/06/13 07:36:48;;;;;;;;;14.00;13.00;;;;;24.06;55.46;100699.91;110257;1264;18903;-48
2022/06/13 07:39:16;;;;;;;;;12.00;11.67;;;;;23.96;54.91;100691.73;110259;1264;19667;-49
2022/06/13 07:41:43;;;;;;;;;11.00;10.00;;;;;23.59;54.68;100687.87;110242;1264;18985;-49
2022/06/13 07:44:10;;;;;;;;;8.33;8.33;;;;;23.49;54.64;100682.13;110256;1264;18979;-49
2022/06/13 07:46:38;;;;;;;;;10.00;10.00;;;;;23.41;54.31;100676.36;110184;1264;19500;-48
2022/06/13 07:49:05;;;;;;;;;10.00;10.00;;;;;23.50;53.84;100673.34;110184;1264;20104;-48
2022/06/13 07:51:32;;;;;;;;;8.67;8.00;;;;;23.56;52.96;100671.38;110190;1264;22243;-48
2022/06/13 07:54:00;;;;;;;;;7.00;7.00;;;;;23.58;52.70;100677.10;110192;1264;19762;-49
2022/06/13 07:56:27;;;;;;;;;7.00;7.00;;;;;23.63;52.64;100676.70;110187;1264;22801;-48
2022/06/13 07:58:54;;;;;;;;;7.67;7.00;;;;;23.59;52.41;100667.98;110178;1264;18908;-47
2022/06/13 08:01:22;;;;;;;;;7.50;7.00;;;;;23.47;52.21;100659.50;110240;1264;19568;-45
2022/06/13 08:03:49;;;;;;;;;13.50;13.00;;;;;23.46;52.08;100650.36;110207;1264;18851;-49
2022/06/13 08:06:16;;;;;;;;;12.33;12.33;;;;;23.37;51.81;100642.83;110137;1264;18875;-46
2022/06/13 08:08:45;;;;;;;;;10.67;10.00;;;;;23.08;51.94;100632.83;110053;1264;19460;-46
2022/06/13 08:11:13;;;;;;;;;7.00;7.00;;;;;23.07;51.45;100622.52;110185;1264;23082;-49
2022/06/13 08:13:40;;;;;;;;;5.50;5.00;;;;;22.82;51.32;100624.07;110225;1264;18749;-47
2022/06/13 08:16:07;;;;;;;;;7.67;7.67;;;;;22.16;52.40;100632.51;110206;1264;19636;-47
2022/06/13 08:18:35;;;;;;;;;9.00;9.00;;;;;21.97;53.02;100635.48;110228;1264;18472;-47
2022/06/13 08:21:02;;;;;;;;;9.00;9.00;;;;;22.32;52.64;100631.45;110308;1264;18777;-47
2022/06/13 08:23:29;;;;;;;;;6.00;6.00;;;;;22.74;52.05;100630.75;110253;1264;19551;-48
2022/06/13 08:25:57;;;;;;;;;9.00;9.00;;;;;23.11;51.51;100630.97;110263;1264;18547;-46
2022/06/13 08:28:24;;;;;;;;;7.00;7.00;;;;;23.40;50.90;100632.13;110177;1267;18828;-48
2022/06/13 08:30:51;;;;;;;;;6.33;6.33;;;;;23.62;50.66;100630.81;110072;1265;19634;-48
2022/06/13 08:33:18;;;;;;;;;9.00;8.33;;;;;23.78;50.43;100633.48;110163;1266;18426;-48
2022/06/13 08:35:46;;;;;;;;;7.00;7.00;;;;;23.88;50.24;100632.96;110191;1265;18718;-48
2022/06/13 08:38:13;;;;;;;;;7.00;7.00;;;;;23.94;50.28;100636.70;110128;1267;19490;-49
2022/06/13 08:40:40;;;;;;;;;7.00;7.00;;;;;23.98;50.27;100648.39;110280;1264;18638;-46
2022/06/13 08:43:08;;;;;;;;;7.00;7.00;;;;;24.03;50.27;100654.13;110183;1264;19038;-49
2022/06/13 08:45:35;;;;;;;;;8.00;7.33;;;;;24.11;50.97;100661.41;110194;1264;19529;-47
2022/06/13 08:48:03;;;;;;;;;7.33;7.33;;;;;24.17;50.99;100665.15;110253;1264;18425;-48
2022/06/13 08:50:30;;;;;;;;;8.00;7.33;;;;;24.16;50.89;100672.44;110269;1264;22667;-48
2022/06/13 08:52:57;;;;;;;;;8.00;8.00;;;;;24.14;51.18;100685.58;110248;1264;19643;-48
2022/06/13 08:55:25;;;;;;;;;7.33;7.33;;;;;24.13;51.05;100697.35;110253;1264;23150;-49
2022/06/13 08:57:52;;;;;;;;;7.00;7.00;;;;;24.12;50.99;100696.00;110208;1265;18686;-48
2022/06/13 09:00:19;;;;;;;;;7.00;7.00;;;;;24.12;51.23;100690.48;110246;1264;19579;-47
2022/06/13 09:02:46;;;;;;;;;7.00;6.00;;;;;24.15;51.53;100688.11;110243;1264;18421;-48
2022/06/13 09:05:14;;;;;;;;;8.00;8.00;;;;;24.16;51.82;100675.02;109935;1264;22956;-48
2022/06/13 09:07:41;;;;;;;;;8.33;8.33;;;;;24.05;51.77;100658.98;109922;1264;21154;-50
2022/06/13 09:10:09;;;;;;;;;7.00;6.67;;;;;23.38;52.12;100638.23;109880;1264;22312;-46
2022/06/13 09:12:36;;;;;;;;;6.00;6.00;;;;;21.89;55.20;100616.77;110214;1265;18956;-47
2022/06/13 09:15:03;;;;;;;;;7.67;7.67;;;;;21.40;57.43;100630.95;110186;1265;22759;-48
2022/06/13 09:17:31;;;;;;;;;7.00;6.00;;;;;22.05;56.60;100646.67;110135;1265;18410;-46
2022/06/13 09:19:58;;;;;;;;;7.00;6.33;;;;;22.55;55.47;100647.16;109998;1264;20025;-46
2022/06/13 09:22:25;;;;;;;;;7.67;6.00;;;;;22.80;55.04;100644.73;109948;1265;19489;-47
2022/06/13 09:24:53;;;;;;;;;10.33;9.00;;;;;22.83;54.84;100649.68;110027;1264;31431;-47
2022/06/13 09:27:20;;;;;;;;;7.67;7.67;;;;;22.88;54.82;100655.98;110146;1265;18809;-48
2022/06/13 09:29:47;;;;;;;;;6.00;6.00;;;;;22.93;54.79;100668.01;110127;1264;21675;-46
2022/06/13 09:32:15;;;;;;;;;6.00;6.00;;;;;22.97;55.18;100678.65;110185;1265;18615;-49
2022/06/13 09:34:42;;;;;;;;;7.00;7.00;;;;;22.99;55.26;100684.73;110293;1264;22906;-46
2022/06/13 09:37:09;;;;;;;;;9.00;7.00;;;;;22.99;55.34;100688.20;110265;1265;19488;-47
2022/06/13 09:39:37;;;;;;;;;9.00;7.00;;;;;22.86;55.56;100691.18;110252;1264;18610;-46
2022/06/13 09:42:04;;;;;;;;;6.50;6.50;;;;;22.69;55.87;100693.14;110207;1264;18809;-48
2022/06/13 09:44:32;;;;;;;;;6.00;6.00;;;;;22.64;56.08;100694.98;110121;1264;20914;-46
2022/06/13 09:46:59;;;;;;;;;7.00;7.00;;;;;22.68;56.15;100695.50;110242;1264;18643;-45
2022/06/13 09:49:28;;;;;;;;;9.00;7.00;;;;;22.80;56.04;100693.04;110261;1265;18910;-47
2022/06/13 09:51:56;;;;;;;;;9.00;9.00;;;;;22.92;56.00;100690.53;110256;1265;19497;-46
2022/06/13 09:54:23;;;;;;;;;10.00;7.00;;;;;23.04;55.90;100687.67;110251;1264;18670;-46
2022/06/13 09:56:51;;;;;;;;;10.00;9.00;;;;;23.10;55.91;100692.16;110202;1264;18903;-46
2022/06/13 09:59:18;;;;;;;;;7.00;7.00;;;;;23.06;56.10;100686.23;110137;1264;19633;-44
2022/06/13 10:01:46;;;;;;;;;10.67;10.33;;;;;23.11;56.13;100680.30;110157;1264;18754;-45
2022/06/13 10:04:13;;;;;;;;;22.00;16.00;;;;;23.19;55.93;100681.92;110246;1264;18876;-47
2022/06/13 10:06:40;;;;;;;;;23.67;19.67;;;;;23.21;55.95;100687.99;110188;1265;19507;-47
2022/06/13 10:09:07;;;;;;;;;51.00;41.00;;;;;23.15;55.63;100688.23;110051;1264;23969;-47
2022/06/13 10:11:35;;;;;;;;;54.00;41.33;;;;;23.14;55.05;100684.86;110134;1264;18799;-44
2022/06/13 10:14:06;;;;;;;;;31.33;28.67;;;;;23.14;55.00;100688.13;110233;1264;21081;-48
2022/06/13 10:16:33;;;;;;;;;24.00;23.67;;;;;23.16;54.72;100685.17;110189;1264;18732;-46
2022/06/13 10:19:00;;;;;;;;;22.50;17.00;;;;;23.23;54.27;100691.11;110271;1264;18904;-45
2022/06/13 10:21:28;;;;;;;;;19.00;18.00;;;;;23.20;54.12;100691.27;110263;1264;19554;-47
2022/06/13 10:23:55;;;;;;;;;11.00;11.00;;;;;23.18;54.28;100691.67;110246;1264;22344;-46
2022/06/13 10:26:22;;;;;;;;;11.00;10.00;;;;;23.17;54.17;100692.14;110206;1264;19072;-46
2022/06/13 10:28:49;;;;;;;;;11.00;10.00;;;;;23.14;53.95;100696.53;110134;1263;19546;-43
2022/06/13 10:31:17;;;;;;;;;10.00;9.00;;;;;23.14;53.71;100690.70;110302;1264;22843;-43
2022/06/13 10:33:44;;;;;;;;;10.00;10.00;;;;;23.20;53.91;100686.17;110277;1264;18803;-45
2022/06/13 10:36:11;;;;;;;;;10.50;9.00;;;;;23.22;53.93;100673.52;110257;1264;19389;-47
2022/06/13 10:38:39;;;;;;;;;9.67;9.67;;;;;23.17;53.71;100657.30;110218;1264;20090;-47
2022/06/13 10:41:06;;;;;;;;;11.67;11.33;;;;;23.11;54.25;100651.16;110265;1264;18799;-46
2022/06/13 10:43:33;;;;;;;;;9.00;9.00;;;;;22.98;54.26;100648.25;110245;1264;23022;-44
2022/06/13 10:46:01;;;;;;;;;10.33;10.00;;;;;22.91;54.43;100651.51;110143;1264;18834;-46
2022/06/13 10:48:29;;;;;;;;;9.33;9.33;;;;;22.95;54.49;100649.52;110248;1264;18910;-46
2022/06/13 10:50:57;;;;;;;;;9.33;9.33;;;;;23.02;54.55;100649.05;110272;1264;20290;-46
2022/06/13 10:53:24;;;;;;;;;8.00;7.00;;;;;22.82;54.82;100643.42;110147;1264;18561;-47
2022/06/13 10:55:51;;;;;;;;;9.00;9.00;;;;;22.76;55.14;100644.30;110196;1264;18986;-47
2022/06/13 10:58:20;;;;;;;;;10.00;10.00;;;;;22.87;54.92;100652.15;110142;1264;19504;-45
2022/06/13 11:00:47;;;;;;;;;7.67;7.67;;;;;22.91;54.96;100648.48;110114;1265;18613;-47
2022/06/13 11:03:14;;;;;;;;;9.00;9.00;;;;;22.86;55.24;100650.30;110079;1264;18608;-47
2022/06/13 11:05:41;;;;;;;;;7.00;7.00;;;;;22.76;55.60;100645.98;110171;1264;19537;-47
2022/06/13 11:08:09;;;;;;;;;7.00;7.00;;;;;22.76;55.61;100643.02;110256;1264;18917;-45
2022/06/13 11:10:36;;;;;;;;;10.00;9.00;;;;;22.81;55.39;100636.79;110318;1264;19107;-48
2022/06/13 11:13:03;;;;;;;;;7.00;7.00;;;;;22.83;55.21;100635.15;110134;1264;19460;-47